Time;durP1;ratioP1;P1;durP2;ratioP2;P2;SDS_P1;SDS_P2;PMS_P1;PMS_P2;Temp;Humidity;BMP_temperature;BMP_pressure;BME280_temperature;BME280_humidity;BME280_pressure;Samples;Min_cycle;Max_cycle;Signal;HPM_P1;HPM_P2
2021/09/27 00:01:19;;;;;;;21.13;17.63;;;16.10;99.90;;;;;;5007408;28;20419;-79
2021/09/27 00:03:48;;;;;;;20.87;17.50;;;16.10;99.90;;;;;;5004171;28;20922;-79
2021/09/27 00:06:15;;;;;;;21.00;16.33;;;16.20;99.90;;;;;;5001057;28;21026;-80
2021/09/27 00:08:44;;;;;;;18.40;15.40;;;16.20;99.90;;;;;;4998030;28;20555;-80
2021/09/27 00:11:14;;;;;;;20.83;15.60;;;16.30;99.90;;;;;;4999560;28;20460;-81
2021/09/27 00:13:44;;;;;;;20.67;15.97;;;16.40;99.90;;;;;;5001985;28;20454;-81
2021/09/27 00:16:12;;;;;;;21.00;16.23;;;16.30;99.90;;;;;;5004689;28;20463;-81
2021/09/27 00:18:39;;;;;;;17.40;15.60;;;16.30;99.90;;;;;;5012576;28;20446;-81
2021/09/27 00:21:10;;;;;;;21.57;15.97;;;16.30;99.90;;;;;;5010427;28;20430;-82
2021/09/27 00:23:38;;;;;;;17.53;15.13;;;16.30;99.90;;;;;;5002141;28;20455;-82
2021/09/27 00:26:07;;;;;;;19.10;14.57;;;16.30;99.90;;;;;;5002483;28;20474;-81
2021/09/27 00:28:34;;;;;;;19.00;15.10;;;16.30;99.90;;;;;;5008873;28;20603;-81
2021/09/27 00:31:01;;;;;;;17.57;14.37;;;16.20;99.90;;;;;;5011747;28;20510;-80
2021/09/27 00:33:29;;;;;;;21.00;15.50;;;16.30;99.90;;;;;;5007384;28;20477;-80
2021/09/27 00:35:56;;;;;;;19.50;16.67;;;16.20;99.90;;;;;;5007188;28;20539;-80
2021/09/27 00:38:26;;;;;;;22.40;15.70;;;16.20;99.90;;;;;;5000559;28;20561;-81
2021/09/27 00:40:55;;;;;;;17.93;15.50;;;16.30;99.90;;;;;;5002695;28;20959;-80
2021/09/27 00:43:24;;;;;;;22.37;17.27;;;16.20;99.90;;;;;;5002965;28;20529;-81
2021/09/27 00:45:55;;;;;;;20.00;15.90;;;16.20;99.90;;;;;;5004060;28;20459;-81
2021/09/27 00:48:23;;;;;;;19.50;16.30;;;16.20;99.90;;;;;;5003733;28;20432;-81
2021/09/27 00:50:53;;;;;;;20.97;15.73;;;16.20;99.90;;;;;;5003267;28;20486;-81
2021/09/27 00:53:23;;;;;;;23.93;15.40;;;16.20;99.90;;;;;;5004870;28;20495;-81
2021/09/27 00:55:52;;;;;;;25.03;16.60;;;16.30;99.90;;;;;;5003693;28;20455;-81
2021/09/27 00:58:21;;;;;;;20.20;16.17;;;16.30;99.90;;;;;;5001220;28;20491;-80
2021/09/27 01:00:48;;;;;;;19.40;15.20;;;16.30;99.90;;;;;;4999294;28;20452;-81
2021/09/27 01:03:16;;;;;;;21.13;15.80;;;16.20;99.90;;;;;;5000330;28;20502;-80
2021/09/27 01:05:54;;;;;;;19.33;14.70;;;16.30;99.90;;;;;;5002819;28;21047;-81
2021/09/27 01:08:32;;;;;;;21.60;16.90;;;16.20;99.90;;;;;;5012274;28;20463;-82
2021/09/27 01:11:20;;;;;;;18.33;15.40;;;16.20;99.90;;;;;;5014389;28;20435;-82
2021/09/27 01:14:09;;;;;;;19.37;15.00;;;16.10;99.90;;;;;;5016269;28;20819;-81
2021/09/27 01:16:43;;;;;;;23.30;17.40;;;16.10;99.90;;;;;;5017679;28;20444;-81
2021/09/27 01:19:45;;;;;;;21.60;17.17;;;16.10;99.90;;;;;;5014426;28;20457;-81
2021/09/27 01:22:20;;;;;;;21.20;16.23;;;16.00;99.90;;;;;;5011739;28;20465;-80
2021/09/27 01:25:14;;;;;;;23.33;17.30;;;16.00;99.90;;;;;;5016308;28;20482;-82
2021/09/27 01:28:17;;;;;;;22.87;17.37;;;16.00;99.90;;;;;;5017877;28;20442;-81
2021/09/27 01:31:35;;;;;;;22.80;17.33;;;16.00;99.90;;;;;;5017580;28;20445;-81
2021/09/27 01:34:07;;;;;;;21.20;15.27;;;15.90;99.90;;;;;;4948472;29;20913;-79
2021/09/27 01:36:44;;;;;;;22.40;16.67;;;15.90;99.90;;;;;;4940155;29;20980;-79
2021/09/27 01:39:16;;;;;;;24.43;18.87;;;15.80;99.90;;;;;;4978883;28;20489;-80
2021/09/27 01:41:51;;;;;;;25.30;16.90;;;15.80;99.90;;;;;;5001137;28;20474;-81
2021/09/27 01:44:34;;;;;;;25.10;18.47;;;15.70;99.90;;;;;;5000873;28;20552;-80
2021/09/27 01:47:06;;;;;;;21.07;16.80;;;15.70;99.90;;;;;;5001340;28;20467;-81
2021/09/27 01:49:44;;;;;;;25.57;18.87;;;15.70;99.90;;;;;;5002624;28;20455;-81
2021/09/27 01:52:17;;;;;;;25.77;17.87;;;15.70;99.90;;;;;;5001368;28;20434;-81
2021/09/27 01:54:48;;;;;;;21.30;17.33;;;15.70;99.90;;;;;;5000356;28;20565;-81
2021/09/27 01:57:20;;;;;;;27.20;19.20;;;15.70;99.90;;;;;;5001693;28;20451;-80
2021/09/27 01:59:56;;;;;;;26.17;18.70;;;15.60;99.90;;;;;;5001158;28;21035;-81
2021/09/27 02:02:30;;;;;;;24.77;17.93;;;15.60;99.90;;;;;;5005589;28;20493;-80
2021/09/27 02:05:06;;;;;;;26.50;18.60;;;15.60;99.90;;;;;;5016647;28;20479;-82
2021/09/27 02:07:39;;;;;;;33.22;20.25;;;15.60;99.90;;;;;;5018445;28;20470;-82
2021/09/27 02:10:09;;;;;;;24.33;18.47;;;15.70;99.90;;;;;;5014894;28;20311;-79
2021/09/27 02:12:44;;;;;;;26.57;19.03;;;15.60;99.90;;;;;;5015206;28;20447;-80
2021/09/27 02:15:16;;;;;;;24.83;18.57;;;15.50;99.90;;;;;;5009178;28;20481;-81
2021/09/27 02:17:49;;;;;;;22.50;17.57;;;15.50;99.90;;;;;;5006307;28;21007;-81
2021/09/27 02:20:23;;;;;;;24.50;17.67;;;15.50;99.90;;;;;;5006504;28;20487;-81
2021/09/27 02:22:54;;;;;;;27.40;17.70;;;15.40;99.90;;;;;;5002874;28;20494;-81
2021/09/27 02:25:26;;;;;;;21.37;16.30;;;15.40;99.90;;;;;;5003190;28;20451;-82
2021/09/27 02:27:53;;;;;;;28.83;17.67;;;15.30;99.90;;;;;;5000903;28;20535;-82
2021/09/27 02:30:29;;;;;;;25.10;18.00;;;15.30;99.90;;;;;;5000783;28;20489;-82
2021/09/27 02:33:03;;;;;;;19.77;15.20;;;15.30;99.90;;;;;;5000828;28;20703;-81
2021/09/27 02:35:36;;;;;;;21.77;16.30;;;15.30;99.90;;;;;;5001509;28;20540;-81
2021/09/27 02:38:09;;;;;;;23.43;17.33;;;15.20;99.90;;;;;;4999857;28;20494;-81
2021/09/27 02:40:39;;;;;;;23.53;16.97;;;15.20;99.90;;;;;;5000194;28;20489;-81
2021/09/27 02:43:08;;;;;;;23.57;17.70;;;15.20;99.90;;;;;;5001208;28;20520;-80
2021/09/27 02:45:37;;;;;;;22.00;17.00;;;15.10;99.90;;;;;;4999689;28;20456;-80
2021/09/27 02:48:12;;;;;;;28.37;17.97;;;15.10;99.90;;;;;;5001853;28;20445;-80
2021/09/27 02:50:44;;;;;;;22.08;16.23;;;15.10;99.90;;;;;;5001165;28;20493;-80
2021/09/27 02:53:11;;;;;;;24.50;16.58;;;15.10;99.90;;;;;;4998241;28;20196;-79
2021/09/27 02:55:57;;;;;;;28.30;18.50;;;15.10;99.90;;;;;;4996406;28;20239;-79
2021/09/27 02:58:33;;;;;;;26.50;18.70;;;15.20;99.90;;;;;;4995932;28;20483;-79
2021/09/27 03:01:06;;;;;;;29.20;18.85;;;15.20;99.90;;;;;;4996506;28;20529;-80
2021/09/27 03:03:44;;;;;;;25.90;18.43;;;15.20;99.90;;;;;;5001422;28;20317;-81
2021/09/27 03:06:23;;;;;;;27.20;18.87;;;15.20;99.90;;;;;;5003354;28;20489;-82
2021/09/27 03:09:02;;;;;;;28.43;17.07;;;15.20;99.90;;;;;;5006895;28;20488;-82
2021/09/27 03:11:59;;;;;;;25.60;17.88;;;15.10;99.90;;;;;;5014041;28;20441;-83
2021/09/27 03:14:46;;;;;;;21.20;15.90;;;15.10;99.90;;;;;;5009609;28;20239;-83
2021/09/27 03:17:19;;;;;;;22.55;16.05;;;15.00;99.90;;;;;;5000992;28;20800;-82
2021/09/27 03:20:11;;;;;;;25.50;17.73;;;14.90;99.90;;;;;;4998164;28;20282;-82
2021/09/27 03:22:47;;;;;;;23.25;17.48;;;14.90;99.90;;;;;;5001941;28;20243;-81
2021/09/27 03:25:25;;;;;;;23.23;15.88;;;14.90;99.90;;;;;;5005991;28;20256;-82
2021/09/27 03:28:02;;;;;;;28.20;16.85;;;14.80;99.90;;;;;;5019106;28;20191;-80
2021/09/27 03:30:39;;;;;;;21.73;16.00;;;14.80;99.90;;;;;;5018059;28;20225;-80
2021/09/27 03:33:13;;;;;;;21.50;17.10;;;14.80;99.90;;;;;;5008671;28;20293;-80
2021/09/27 03:36:00;;;;;;;25.30;17.30;;;14.80;99.90;;;;;;5020943;28;20193;-79
2021/09/27 03:38:34;;;;;;;20.35;15.60;;;14.80;99.90;;;;;;5020561;28;20461;-79
2021/09/27 03:41:10;;;;;;;23.23;17.52;;;14.80;99.90;;;;;;5019000;28;20221;-80
2021/09/27 03:43:48;;;;;;;20.75;15.30;;;14.70;99.90;;;;;;5017143;28;20277;-79
2021/09/27 03:46:23;;;;;;;22.55;16.25;;;14.70;99.90;;;;;;5018708;28;20212;-78
2021/09/27 03:48:58;;;;;;;22.30;16.67;;;14.70;99.90;;;;;;5008433;28;20285;-80
2021/09/27 03:51:29;;;;;;;26.13;15.88;;;14.60;99.90;;;;;;5005013;28;20221;-80
2021/09/27 03:54:02;;;;;;;23.98;17.77;;;14.60;99.90;;;;;;5010944;28;20231;-80
2021/09/27 03:56:35;;;;;;;23.77;17.48;;;14.60;99.90;;;;;;5009105;28;20193;-80
2021/09/27 03:59:08;;;;;;;23.63;17.75;;;14.50;99.90;;;;;;5005807;28;20707;-80
2021/09/27 04:01:44;;;;;;;28.70;19.50;;;14.50;99.90;;;;;;5000457;28;20301;-81
2021/09/27 04:04:34;;;;;;;21.95;16.73;;;14.50;99.90;;;;;;4999859;28;20489;-81
2021/09/27 04:07:20;;;;;;;22.25;16.23;;;14.50;99.90;;;;;;5005121;28;20206;-80
2021/09/27 04:10:00;;;;;;;23.55;15.57;;;14.50;99.90;;;;;;5000051;28;20753;-81
2021/09/27 04:12:35;;;;;;;21.05;15.93;;;14.40;99.90;;;;;;5000840;28;20205;-80
2021/09/27 04:15:12;;;;;;;22.85;16.83;;;14.40;99.90;;;;;;4999621;28;20709;-80
2021/09/27 04:17:51;;;;;;;24.98;17.48;;;14.40;99.90;;;;;;4999344;28;20679;-80
2021/09/27 04:20:23;;;;;;;23.92;17.17;;;14.40;99.90;;;;;;5000135;28;20233;-80
2021/09/27 04:23:06;;;;;;;21.05;15.43;;;14.40;99.90;;;;;;5002720;28;20588;-80
2021/09/27 04:25:41;;;;;;;25.63;17.20;;;14.40;99.90;;;;;;5003417;28;20277;-82
2021/09/27 04:28:50;;;;;;;25.98;16.98;;;14.30;99.90;;;;;;5000175;28;20240;-81
2021/09/27 04:31:32;;;;;;;26.60;17.15;;;14.30;99.90;;;;;;5000471;28;20617;-81
2021/09/27 04:34:39;;;;;;;25.25;16.40;;;14.40;99.90;;;;;;4999228;28;20258;-81
2021/09/27 04:37:06;;;;;;;22.58;16.50;;;14.30;99.90;;;;;;5012420;28;20209;-82
2021/09/27 04:39:39;;;;;;;23.77;17.40;;;14.20;99.90;;;;;;5015094;28;20253;-82
2021/09/27 04:42:28;;;;;;;27.30;17.10;;;14.30;99.90;;;;;;5003771;28;20220;-81
2021/09/27 04:45:18;;;;;;;24.42;18.13;;;14.30;99.90;;;;;;5033246;22;20259;-79
2021/09/27 04:47:58;;;;;;;25.23;17.58;;;14.30;99.90;;;;;;5016868;28;20287;-78
2021/09/27 04:50:35;;;;;;;22.77;16.15;;;14.20;99.90;;;;;;5016232;28;20186;-78
2021/09/27 04:53:14;;;;;;;20.83;15.93;;;14.20;99.90;;;;;;5016348;28;20757;-78
2021/09/27 04:55:59;;;;;;;22.63;15.57;;;14.20;99.90;;;;;;5035769;28;20231;-78
2021/09/27 04:58:43;;;;;;;20.08;15.35;;;14.20;99.90;;;;;;5040341;28;20193;-77
2021/09/27 05:01:31;;;;;;;23.75;16.70;;;14.10;99.90;;;;;;5042584;28;20222;-78
2021/09/27 05:04:12;;;;;;;20.58;15.80;;;14.10;99.90;;;;;;5034557;28;20225;-80
2021/09/27 05:06:54;;;;;;;20.75;15.15;;;14.10;99.90;;;;;;5033275;28;20243;-79
2021/09/27 05:09:35;;;;;;;20.05;15.48;;;14.00;99.90;;;;;;5034733;28;20295;-78
2021/09/27 05:12:29;;;;;;;22.73;15.40;;;14.00;99.90;;;;;;5036434;28;20661;-79
2021/09/27 05:15:18;;;;;;;25.15;16.80;;;14.00;99.90;;;;;;5047227;28;20250;-79
2021/09/27 05:18:16;;;;;;;24.98;15.38;;;14.00;99.90;;;;;;5047703;28;20675;-79
2021/09/27 05:21:06;;;;;;;21.45;16.08;;;14.00;99.90;;;;;;5048876;28;20228;-78
2021/09/27 05:23:45;;;;;;;18.75;14.32;;;14.00;99.90;;;;;;5050356;28;20580;-79
2021/09/27 05:26:45;;;;;;;18.75;15.35;;;14.00;99.90;;;;;;5053210;28;20243;-79
2021/09/27 05:29:30;;;;;;;23.02;15.30;;;14.00;99.90;;;;;;5052532;28;20208;-77
2021/09/27 05:32:13;;;;;;;26.52;15.88;;;14.00;99.90;;;;;;5052032;28;20219;-78
2021/09/27 05:34:50;;;;;;;24.75;16.55;;;14.10;99.90;;;;;;5042922;28;20767;-78
2021/09/27 05:37:33;;;;;;;25.75;16.88;;;14.20;99.90;;;;;;5040312;28;20204;-80
2021/09/27 05:40:38;;;;;;;23.20;15.43;;;14.30;99.90;;;;;;5040742;28;20296;-78
2021/09/27 05:43:28;;;;;;;26.65;17.33;;;14.40;99.90;;;;;;5006644;28;20777;-77
2021/09/27 05:46:16;;;;;;;24.15;15.57;;;14.50;99.90;;;;;;4997895;28;20312;-78
2021/09/27 05:48:52;;;;;;;29.23;18.35;;;14.50;99.90;;;;;;4997689;28;20272;-78
2021/09/27 05:51:27;;;;;;;26.92;17.77;;;14.60;99.90;;;;;;4997679;28;20210;-79
2021/09/27 05:54:00;;;;;;;31.67;20.08;;;14.50;99.90;;;;;;4998142;28;20230;-79
2021/09/27 05:56:33;;;;;;;30.25;19.25;;;14.60;99.90;;;;;;4997845;28;20615;-79
2021/09/27 05:59:09;;;;;;;30.42;18.88;;;14.60;99.90;;;;;;4997264;28;20281;-78
2021/09/27 06:01:47;;;;;;;28.88;18.70;;;14.70;99.90;;;;;;4999023;28;20274;-78
2021/09/27 06:04:25;;;;;;;28.02;18.42;;;14.90;99.90;;;;;;5003648;28;20236;-79
2021/09/27 06:07:02;;;;;;;28.95;18.10;;;15.00;99.90;;;;;;5001174;28;20237;-78
2021/09/27 06:09:59;;;;;;;25.98;17.52;;;15.10;99.90;;;;;;5005776;28;20275;-82
2021/09/27 06:12:33;;;;;;;26.35;16.80;;;15.20;99.90;;;;;;5005064;28;20221;-78
2021/09/27 06:15:06;;;;;;;20.77;16.77;;;15.20;99.90;;;;;;5042422;28;20265;-81
2021/09/27 06:18:05;;;;;;;26.08;17.85;;;15.30;99.90;;;;;;5045722;28;20235;-80
2021/09/27 06:20:47;;;;;;;23.60;17.55;;;15.20;99.90;;;;;;5031753;28;20224;-79
2021/09/27 06:23:44;;;;;;;22.75;15.95;;;14.90;99.90;;;;;;5044280;28;20199;-80
2021/09/27 06:26:15;;;;;;;24.88;17.45;;;14.90;99.90;;;;;;5032717;28;20305;-79
2021/09/27 06:28:47;;;;;;;28.05;17.60;;;15.00;99.90;;;;;;5042456;28;20581;-80
2021/09/27 06:31:19;;;;;;;25.67;17.60;;;15.00;99.90;;;;;;5043023;28;20225;-80
2021/09/27 06:33:51;;;;;;;24.30;17.45;;;15.10;99.90;;;;;;5039897;28;20219;-80
2021/09/27 06:36:23;;;;;;;20.17;15.75;;;15.20;99.90;;;;;;5025111;28;20195;-80
2021/09/27 06:38:54;;;;;;;26.00;16.67;;;15.30;99.90;;;;;;5022387;28;20197;-78
2021/09/27 06:41:24;;;;;;;23.25;15.75;;;15.30;99.90;;;;;;5021131;28;20723;-82
2021/09/27 06:43:52;;;;;;;31.90;18.37;;;15.40;99.90;;;;;;5028077;28;20241;-80
2021/09/27 06:46:21;;;;;;;25.13;16.53;;;15.40;99.90;;;;;;5037540;28;20477;-79
2021/09/27 06:48:48;;;;;;;24.93;16.00;;;15.60;99.90;;;;;;5040873;28;20489;-80
2021/09/27 06:51:15;;;;;;;30.47;16.83;;;15.70;99.90;;;;;;5040929;28;20480;-78
2021/09/27 06:53:44;;;;;;;23.70;16.50;;;15.80;99.90;;;;;;5055074;28;20460;-79
2021/09/27 06:56:11;;;;;;;26.67;16.70;;;15.80;99.90;;;;;;5055461;28;20457;-81
2021/09/27 06:58:38;;;;;;;21.55;15.95;;;15.80;99.90;;;;;;5060027;28;20490;-79
2021/09/27 07:01:05;;;;;;;30.77;17.47;;;15.90;99.90;;;;;;5059683;28;20261;-80
2021/09/27 07:03:32;;;;;;;18.42;14.43;;;16.00;99.90;;;;;;5060443;28;20480;-78
2021/09/27 07:05:59;;;;;;;21.33;16.20;;;16.00;99.90;;;;;;5052896;28;20207;-80
2021/09/27 07:08:27;;;;;;;19.23;15.77;;;16.10;99.90;;;;;;5047303;28;20460;-79
2021/09/27 07:10:55;;;;;;;18.53;14.90;;;16.40;99.90;;;;;;5044799;28;20451;-79
2021/09/27 07:13:26;;;;;;;21.60;14.70;;;16.60;99.90;;;;;;5047149;28;20449;-81
2021/09/27 07:15:53;;;;;;;21.80;13.20;;;16.80;99.90;;;;;;5050051;28;20565;-78
2021/09/27 07:18:20;;;;;;;20.10;13.23;;;16.90;99.90;;;;;;5040936;28;20485;-79
2021/09/27 07:20:47;;;;;;;17.60;12.50;;;17.00;99.90;;;;;;5040222;28;20481;-77
2021/09/27 07:23:15;;;;;;;16.33;13.40;;;17.10;99.90;;;;;;5038683;28;20540;-78
2021/09/27 07:25:42;;;;;;;14.67;12.47;;;17.30;99.90;;;;;;5038971;28;20572;-79
2021/09/27 07:28:11;;;;;;;14.40;12.77;;;17.40;99.90;;;;;;5038322;28;20464;-79
2021/09/27 07:30:38;;;;;;;19.27;13.40;;;17.60;98.40;;;;;;5038462;28;20972;-79
2021/09/27 07:33:06;;;;;;;14.20;12.70;;;17.90;98.20;;;;;;5044076;28;20486;-80
2021/09/27 07:35:34;;;;;;;14.10;11.77;;;18.20;96.90;;;;;;5044327;28;20488;-80
2021/09/27 07:38:01;;;;;;;12.10;10.90;;;18.50;93.40;;;;;;5038870;28;20482;-81
2021/09/27 07:40:30;;;;;;;17.40;10.87;;;18.50;91.60;;;;;;5038480;28;20517;-81
2021/09/27 07:42:58;;;;;;;11.67;10.47;;;18.60;91.10;;;;;;5048358;28;20475;-79
2021/09/27 07:45:27;;;;;;;16.10;11.30;;;18.80;91.20;;;;;;5059769;28;20499;-80
2021/09/27 07:47:55;;;;;;;16.40;11.50;;;19.00;91.30;;;;;;5058435;28;20441;-79
2021/09/27 07:50:24;;;;;;;14.13;11.10;;;19.30;84.80;;;;;;5059454;28;20440;-83
2021/09/27 07:52:52;;;;;;;14.30;10.53;;;19.30;84.80;;;;;;5056558;28;20464;-79
2021/09/27 07:55:19;;;;;;;12.93;11.30;;;19.50;84.40;;;;;;5044132;28;20523;-79
2021/09/27 07:57:46;;;;;;;12.50;10.90;;;19.60;82.70;;;;;;5041941;28;20877;-78
2021/09/27 08:00:15;;;;;;;11.20;10.10;;;19.60;82.50;;;;;;5048051;28;20485;-78
2021/09/27 08:02:44;;;;;;;12.50;11.20;;;19.70;81.10;;;;;;5048940;28;20450;-77
2021/09/27 08:05:17;;;;;;;12.90;10.23;;;19.70;80.50;;;;;;5057847;28;20436;-80
2021/09/27 08:07:44;;;;;;;13.43;11.87;;;19.80;80.30;;;;;;5056476;28;20430;-80
2021/09/27 08:10:12;;;;;;;11.90;10.67;;;19.90;77.80;;;;;;5055478;28;20407;-80
2021/09/27 08:12:40;;;;;;;12.37;9.87;;;20.00;76.70;;;;;;5053152;28;20489;-83
2021/09/27 08:15:11;;;;;;;11.53;10.30;;;20.00;76.70;;;;;;5039890;28;21073;-80
2021/09/27 08:17:38;;;;;;;11.87;10.67;;;19.90;76.60;;;;;;5048014;28;20469;-78
2021/09/27 08:20:09;;;;;;;12.50;9.67;;;19.80;76.60;;;;;;5042943;28;20515;-78
2021/09/27 08:22:36;;;;;;;11.87;10.60;;;19.70;77.10;;;;;;5039053;28;20855;-78
2021/09/27 08:25:05;;;;;;;12.17;10.17;;;19.60;78.90;;;;;;5041457;28;20480;-79
2021/09/27 08:27:32;;;;;;;13.00;10.40;;;19.50;80.40;;;;;;5038947;28;20491;-78
2021/09/27 08:29:59;;;;;;;11.57;10.47;;;19.40;80.60;;;;;;5044290;28;20486;-79
2021/09/27 08:32:26;;;;;;;10.57;9.37;;;19.60;80.90;;;;;;5044171;28;20485;-79
2021/09/27 08:34:53;;;;;;;10.33;9.20;;;19.60;78.30;;;;;;5026355;28;20437;-80
2021/09/27 08:37:22;;;;;;;10.90;9.50;;;19.70;80.30;;;;;;5029739;28;20450;-79
2021/09/27 08:39:49;;;;;;;10.27;8.97;;;19.90;79.20;;;;;;5048194;28;20448;-80
2021/09/27 08:42:22;;;;;;;8.70;7.90;;;20.10;76.80;;;;;;5040866;28;20481;-77
2021/09/27 08:44:53;;;;;;;11.07;9.97;;;20.20;75.40;;;;;;5043951;28;20550;-81
2021/09/27 08:47:28;;;;;;;9.73;8.83;;;20.30;73.60;;;;;;5053947;28;20420;-80
2021/09/27 08:50:00;;;;;;;9.70;8.80;;;20.30;73.20;;;;;;5053470;28;20465;-81
2021/09/27 08:52:32;;;;;;;10.87;9.77;;;20.40;73.50;;;;;;5050841;28;20445;-80
2021/09/27 08:55:01;;;;;;;9.87;8.50;;;20.40;72.70;;;;;;5050831;28;20518;-80
2021/09/27 08:57:52;;;;;;;9.50;7.93;;;20.30;73.80;;;;;;5051351;28;20454;-80
2021/09/27 09:00:31;;;;;;;13.63;7.90;;;20.40;74.10;;;;;;5051157;28;20467;-79
2021/09/27 09:03:03;;;;;;;8.87;8.07;;;20.50;73.40;;;;;;5037138;28;20521;-79
2021/09/27 09:05:37;;;;;;;8.90;8.00;;;20.50;74.10;;;;;;5035957;28;20504;-79
2021/09/27 09:08:14;;;;;;;8.73;7.30;;;20.60;73.00;;;;;;5044452;28;20469;-79
2021/09/27 09:10:47;;;;;;;8.60;7.73;;;20.60;71.40;;;;;;5046410;28;20424;-82
2021/09/27 09:13:18;;;;;;;7.90;7.03;;;20.60;72.30;;;;;;5052302;28;20499;-79
2021/09/27 09:15:57;;;;;;;8.30;7.50;;;20.60;71.80;;;;;;5052228;28;20481;-82
2021/09/27 09:18:27;;;;;;;9.13;7.83;;;20.70;70.90;;;;;;5053991;28;20434;-81
2021/09/27 09:21:00;;;;;;;8.63;7.83;;;20.70;71.70;;;;;;5033909;28;20497;-80
2021/09/27 09:23:34;;;;;;;7.87;7.17;;;20.80;71.30;;;;;;5056567;28;20432;-81
2021/09/27 09:26:03;;;;;;;8.73;7.27;;;20.90;71.40;;;;;;5056004;28;20439;-81
2021/09/27 09:28:30;;;;;;;7.07;6.47;;;20.80;70.10;;;;;;5053875;28;20461;-79
2021/09/27 09:31:04;;;;;;;13.83;7.07;;;20.70;71.00;;;;;;5045960;28;20449;-80
2021/09/27 09:33:40;;;;;;;6.90;6.20;;;20.70;70.60;;;;;;5047416;28;20494;-79
2021/09/27 09:36:12;;;;;;;8.30;6.57;;;20.60;70.40;;;;;;5047262;28;20438;-79
2021/09/27 09:38:42;;;;;;;6.90;6.30;;;20.70;69.50;;;;;;5047273;28;20440;-80
2021/09/27 09:41:10;;;;;;;6.30;5.70;;;20.80;68.50;;;;;;5041248;28;20474;-81
2021/09/27 09:43:40;;;;;;;8.17;5.97;;;20.90;68.60;;;;;;5041891;28;20485;-81
2021/09/27 09:46:10;;;;;;;8.47;7.40;;;21.00;68.60;;;;;;5054048;28;20458;-82
2021/09/27 09:48:40;;;;;;;8.30;6.17;;;21.10;68.80;;;;;;5049507;28;20432;-79
2021/09/27 09:51:23;;;;;;;8.30;6.20;;;21.10;67.50;;;;;;5049258;28;20457;-80
2021/09/27 09:54:05;;;;;;;6.83;6.13;;;21.20;66.30;;;;;;5050386;28;20512;-79
2021/09/27 09:56:35;;;;;;;6.13;5.53;;;21.10;65.10;;;;;;5050371;28;20456;-80
2021/09/27 09:59:17;;;;;;;5.63;5.03;;;21.20;64.90;;;;;;5047793;28;20480;-81
2021/09/27 10:01:45;;;;;;;6.13;5.37;;;21.30;63.60;;;;;;5052682;28;20449;-82
2021/09/27 10:04:21;;;;;;;7.10;5.50;;;21.30;62.70;;;;;;5049342;28;20444;-81
2021/09/27 10:06:50;;;;;;;7.10;5.80;;;21.40;63.40;;;;;;5046498;28;20465;-81
2021/09/27 10:09:28;;;;;;;6.77;6.17;;;21.50;62.90;;;;;;5044881;28;20420;-80
2021/09/27 10:11:59;;;;;;;6.57;5.97;;;21.70;63.30;;;;;;5042010;28;20446;-77
2021/09/27 10:14:35;;;;;;;5.87;5.33;;;21.80;61.90;;;;;;5039637;28;20535;-79
2021/09/27 10:17:25;;;;;;;5.73;5.13;;;21.90;63.00;;;;;;5042291;28;20431;-78
2021/09/27 10:19:56;;;;;;;6.97;5.40;;;22.10;60.50;;;;;;5040124;28;20481;-80
2021/09/27 10:22:26;;;;;;;5.63;5.13;;;22.10;60.50;;;;;;5043538;28;20493;-80
2021/09/27 10:24:58;;;;;;;6.37;5.67;;;22.10;60.50;;;;;;5044522;28;20496;-81
2021/09/27 10:27:31;;;;;;;6.07;5.40;;;22.10;60.50;;;;;;5045223;28;20941;-81
2021/09/27 10:30:00;;;;;;;5.57;5.07;;;22.30;60.70;;;;;;5046635;28;20558;-80
2021/09/27 10:32:38;;;;;;;6.03;4.97;;;22.40;58.50;;;;;;5039717;28;20442;-77
2021/09/27 10:35:29;;;;;;;5.10;4.70;;;22.50;58.00;;;;;;5038142;28;20572;-78
2021/09/27 10:38:02;;;;;;;6.60;4.83;;;22.60;57.20;;;;;;5037040;28;20469;-79
2021/09/27 10:40:33;;;;;;;6.70;4.30;;;22.60;56.40;;;;;;5038516;28;20954;-78
2021/09/27 10:43:01;;;;;;;5.20;4.70;;;22.60;55.50;;;;;;5038575;28;20450;-79
2021/09/27 10:45:30;;;;;;;6.50;4.20;;;22.50;55.80;;;;;;5041828;28;20486;-80
2021/09/27 10:48:00;;;;;;;6.77;5.03;;;22.50;55.70;;;;;;5046873;28;20464;-80
2021/09/27 10:50:32;;;;;;;4.50;4.10;;;22.80;55.30;;;;;;5049884;28;20491;-79
2021/09/27 10:53:06;;;;;;;4.53;4.13;;;23.00;55.30;;;;;;5053139;28;20459;-81
2021/09/27 10:55:52;;;;;;;9.53;4.60;;;23.30;53.20;;;;;;5053222;28;20498;-80
2021/09/27 10:58:35;;;;;;;5.80;4.20;;;23.10;51.80;;;;;;5055318;28;20436;-80
2021/09/27 11:01:03;;;;;;;5.03;4.30;;;22.80;53.60;;;;;;5054886;28;20480;-81
2021/09/27 11:03:33;;;;;;;5.53;5.00;;;22.90;53.60;;;;;;5053339;28;20436;-81
2021/09/27 11:06:19;;;;;;;11.03;4.33;;;22.90;53.40;;;;;;5053157;28;20434;-80
2021/09/27 11:08:54;;;;;;;5.63;4.73;;;22.70;54.00;;;;;;5052345;28;20457;-80
2021/09/27 11:11:40;;;;;;;4.33;3.93;;;22.70;53.90;;;;;;5052245;28;20439;-81
2021/09/27 11:14:26;;;;;;;4.47;4.10;;;22.50;53.20;;;;;;5048996;28;20476;-79
2021/09/27 11:17:08;;;;;;;4.57;4.17;;;22.60;53.20;;;;;;5061218;28;20430;-80
2021/09/27 11:19:39;;;;;;;5.97;3.80;;;22.60;54.10;;;;;;5052482;28;20421;-80
2021/09/27 11:22:35;;;;;;;8.03;4.63;;;22.70;54.10;;;;;;5049904;28;20464;-80
2021/09/27 11:25:14;;;;;;;5.07;4.57;;;22.90;54.00;;;;;;5040236;28;20468;-80
2021/09/27 11:28:02;;;;;;;4.73;4.33;;;23.10;53.80;;;;;;5045229;28;20457;-80
2021/09/27 11:30:41;;;;;;;5.63;5.13;;;23.40;52.00;;;;;;5055145;28;20436;-80
2021/09/27 11:33:32;;;;;;;5.70;5.00;;;23.30;52.90;;;;;;5073013;28;20455;-81
2021/09/27 11:36:05;;;;;;;5.37;4.67;;;23.20;53.60;;;;;;5046506;28;20458;-80
2021/09/27 11:38:40;;;;;;;4.37;3.97;;;23.50;53.20;;;;;;5052376;28;20432;-79
2021/09/27 11:41:26;;;;;;;4.87;4.47;;;23.70;52.30;;;;;;5051733;28;20529;-80
2021/09/27 11:44:05;;;;;;;6.00;4.83;;;23.90;50.70;;;;;;5052388;28;21019;-80
2021/09/27 11:46:34;;;;;;;4.90;3.87;;;24.10;50.50;;;;;;5054123;28;20416;-80
2021/09/27 11:49:24;;;;;;;4.60;3.60;;;24.30;49.60;;;;;;5043838;28;20508;-77
2021/09/27 11:52:05;;;;;;;3.53;3.23;;;24.40;48.30;;;;;;5044687;28;20474;-80
2021/09/27 11:54:42;;;;;;;4.40;3.23;;;24.40;47.70;;;;;;5050621;28;20476;-81
2021/09/27 11:57:22;;;;;;;3.20;3.00;;;24.70;47.50;;;;;;5052803;28;20446;-82
2021/09/27 12:00:00;;;;;;;3.20;2.90;;;24.70;46.50;;;;;;5046483;28;20449;-81
2021/09/27 12:02:34;;;;;;;4.50;3.13;;;24.80;45.80;;;;;;5054258;28;20499;-80
2021/09/27 12:05:17;;;;;;;3.13;2.93;;;24.70;45.90;;;;;;5046249;28;20481;-81
2021/09/27 12:07:49;;;;;;;3.33;3.03;;;24.70;45.70;;;;;;5024696;28;20448;-80
2021/09/27 12:10:19;;;;;;;4.03;3.37;;;24.80;45.40;;;;;;5024531;28;20455;-81
2021/09/27 12:12:52;;;;;;;3.00;2.80;;;24.90;45.90;;;;;;5024729;28;20997;-82
2021/09/27 12:15:25;;;;;;;2.97;2.70;;;25.10;44.50;;;;;;5041965;28;20449;-82
2021/09/27 12:17:53;;;;;;;4.80;3.30;;;25.10;44.90;;;;;;5043522;28;20454;-80
2021/09/27 12:20:24;;;;;;;2.93;2.73;;;25.10;43.50;;;;;;5045955;28;21096;-80
2021/09/27 12:22:55;;;;;;;4.60;2.90;;;24.90;44.60;;;;;;5047148;28;20537;-80
2021/09/27 12:25:32;;;;;;;3.17;2.50;;;25.00;44.50;;;;;;5059113;28;20454;-81
2021/09/27 12:28:04;;;;;;;5.57;2.93;;;25.30;43.70;;;;;;5050089;28;20437;-81
2021/09/27 12:30:36;;;;;;;3.13;2.83;;;25.40;43.00;;;;;;5054729;28;20442;-82
2021/09/27 12:33:08;;;;;;;3.03;2.80;;;25.60;42.70;;;;;;5056613;28;20454;-80
2021/09/27 12:35:38;;;;;;;3.20;3.00;;;25.70;41.80;;;;;;5058519;28;20481;-81
2021/09/27 12:38:06;;;;;;;3.07;2.87;;;25.40;41.70;;;;;;5057841;28;20445;-80
2021/09/27 12:40:39;;;;;;;4.23;3.00;;;25.10;42.00;;;;;;5054423;28;20534;-81
2021/09/27 12:43:13;;;;;;;3.77;3.20;;;24.90;43.40;;;;;;5047919;28;20540;-81
2021/09/27 12:45:44;;;;;;;2.77;2.57;;;24.90;43.40;;;;;;5046061;28;20553;-81
2021/09/27 12:48:17;;;;;;;3.40;2.80;;;25.00;43.50;;;;;;5048190;28;20427;-80
2021/09/27 12:50:51;;;;;;;6.53;3.27;;;25.20;43.60;;;;;;5039252;28;20443;-81
2021/09/27 12:53:22;;;;;;;3.17;2.90;;;25.20;43.60;;;;;;5035895;28;20474;-81
2021/09/27 12:55:54;;;;;;;3.70;2.90;;;25.10;43.50;;;;;;5030428;28;20515;-81
2021/09/27 12:58:30;;;;;;;2.87;2.67;;;25.00;43.50;;;;;;5026600;28;20491;-80
2021/09/27 13:01:01;;;;;;;4.83;3.03;;;24.90;43.40;;;;;;5023844;28;20417;-81
2021/09/27 13:03:30;;;;;;;3.67;3.00;;;25.00;43.50;;;;;;5020956;28;20445;-80
2021/09/27 13:06:13;;;;;;;3.10;2.80;;;24.90;43.40;;;;;;5030085;28;20462;-80
2021/09/27 13:08:46;;;;;;;2.73;2.53;;;24.80;43.30;;;;;;5037382;28;20484;-81
2021/09/27 13:11:32;;;;;;;3.87;3.33;;;24.90;43.40;;;;;;5038174;28;20436;-80
2021/09/27 13:14:06;;;;;;;3.07;2.77;;;24.70;43.20;;;;;;5040943;28;21048;-80